Time;durP1;ratioP1;P1;durP2;ratioP2;P2;SDS_P1;SDS_P2;PMS_P1;PMS_P2;Temp;Humidity;BMP_temperature;BMP_pressure;BME280_temperature;BME280_humidity;BME280_pressure;Samples;Min_cycle;Max_cycle;Signal;HPM_P1;HPM_P2
2023/10/07 00:08:00;;;;;;;15.90;10.30;;;9.70;99.90;;;;;;25884696;23;20066;-59
2023/10/07 00:18:15;;;;;;;18.92;11.25;;;9.30;99.90;;;;;;25884255;23;20004;-59
2023/10/07 00:28:19;;;;;;;22.65;13.40;;;9.30;99.90;;;;;;25878541;23;20447;-58
2023/10/07 00:38:37;;;;;;;19.38;12.00;;;9.30;99.90;;;;;;25814041;23;20004;-59
2023/10/07 00:48:46;;;;;;;18.10;11.35;;;9.20;99.90;;;;;;25883088;23;20003;-59
2023/10/07 00:58:52;;;;;;;15.57;10.80;;;9.20;99.90;;;;;;25882887;23;20436;-59
2023/10/07 01:09:09;;;;;;;21.27;13.18;;;9.30;99.90;;;;;;25813655;23;20004;-59
2023/10/07 01:29:29;;;;;;;21.33;12.32;;;9.40;99.90;;;;;;25870809;23;20012;-59
2023/10/07 01:39:40;;;;;;;11.32;7.50;;;9.50;99.90;;;;;;25839092;23;20062;-59
2023/10/07 01:49:43;;;;;;;11.65;8.35;;;9.40;99.90;;;;;;25880570;23;20012;-58
2023/10/07 01:59:45;;;;;;;10.00;7.20;;;9.20;99.90;;;;;;25838424;23;20008;-51
2023/10/07 02:09:48;;;;;;;14.23;9.55;;;9.30;99.90;;;;;;25839464;23;20328;-58
2023/10/07 02:19:53;;;;;;;23.85;16.17;;;9.40;99.90;;;;;;25810803;23;20332;-59
2023/10/07 02:29:57;;;;;;;24.25;15.20;;;9.40;99.90;;;;;;25862467;23;20012;-59
2023/10/07 02:40:18;;;;;;;24.92;15.38;;;9.60;99.90;;;;;;25836496;23;20008;-59
2023/10/07 02:50:20;;;;;;;23.55;14.85;;;9.80;99.90;;;;;;25878999;23;20012;-53
2023/10/07 03:00:49;;;;;;;20.02;13.48;;;9.90;99.90;;;;;;25837898;23;20004;-59
2023/10/07 03:11:03;;;;;;;18.00;12.43;;;9.90;99.90;;;;;;25845487;23;20052;-58
2023/10/07 03:21:11;;;;;;;9.27;6.53;;;9.90;99.90;;;;;;25886237;23;20016;-59
2023/10/07 03:31:18;;;;;;;9.98;6.10;;;9.70;99.90;;;;;;25867542;23;20347;-58
2023/10/07 03:41:21;;;;;;;10.98;6.90;;;9.70;99.90;;;;;;25884924;23;20012;-58
2023/10/07 03:51:23;;;;;;;7.57;5.00;;;9.60;99.90;;;;;;25842619;23;20443;-58
2023/10/07 04:01:26;;;;;;;8.75;5.97;;;9.80;99.90;;;;;;25842190;23;20014;-58
2023/10/07 04:11:28;;;;;;;8.98;5.75;;;9.70;99.90;;;;;;25841790;23;20004;-60
2023/10/07 04:21:30;;;;;;;8.27;4.63;;;9.40;99.90;;;;;;25841507;23;20008;-59
2023/10/07 04:31:37;;;;;;;7.60;5.20;;;9.20;99.90;;;;;;25841101;23;20015;-59
2023/10/07 04:41:43;;;;;;;8.90;5.45;;;9.50;99.90;;;;;;25455429;23;20013;-59
2023/10/07 05:01:52;;;;;;;8.07;5.38;;;9.60;99.90;;;;;;25454939;23;20040;-59
2023/10/07 05:11:54;;;;;;;7.25;4.07;;;9.70;99.90;;;;;;25523888;23;20062;-58
2023/10/07 05:22:14;;;;;;;5.85;3.85;;;9.80;99.90;;;;;;25838631;23;20023;-59
2023/10/07 05:32:17;;;;;;;5.32;3.58;;;9.50;99.90;;;;;;25858556;23;20012;-59
2023/10/07 05:42:20;;;;;;;5.50;3.70;;;9.40;99.90;;;;;;25838481;23;20066;-55
2023/10/07 05:52:21;;;;;;;5.97;3.10;;;9.50;99.90;;;;;;25838057;23;20012;-59
2023/10/07 06:02:23;;;;;;;5.25;3.42;;;9.40;99.90;;;;;;25837686;23;20437;-59
2023/10/07 06:12:25;;;;;;;5.60;3.20;;;9.60;99.90;;;;;;25837741;23;20514;-59
2023/10/07 06:22:26;;;;;;;5.38;3.20;;;9.90;99.90;;;;;;25836860;23;20008;-59
2023/10/07 06:32:43;;;;;;;5.13;3.22;;;10.10;99.90;;;;;;25836229;23;20054;-53
2023/10/07 06:42:45;;;;;;;10.52;3.13;;;10.50;99.90;;;;;;25876769;23;20339;-60
2023/10/07 06:52:47;;;;;;;4.28;2.75;;;10.80;99.90;;;;;;25836434;23;20149;-54
2023/10/07 07:02:57;;;;;;;8.25;4.18;;;11.00;99.90;;;;;;25835882;23;20000;-50
2023/10/07 07:12:59;;;;;;;8.63;6.25;;;11.60;99.90;;;;;;25877519;23;20510;-50
2023/10/07 07:23:10;;;;;;;6.03;4.07;;;12.60;99.90;;;;;;25835238;23;20011;-51
2023/10/07 07:33:12;;;;;;;10.38;6.85;;;13.80;99.90;;;;;;25850575;23;20328;-50
2023/10/07 07:43:14;;;;;;;9.10;7.22;;;15.10;99.90;;;;;;25835981;23;20315;-61
2023/10/07 07:53:16;;;;;;;10.32;7.40;;;16.30;99.90;;;;;;25841104;23;20001;-49
2023/10/07 08:03:17;;;;;;;10.70;6.55;;;17.20;99.90;;;;;;25841702;23;20109;-51
2023/10/07 08:13:23;;;;;;;7.78;6.22;;;17.80;99.90;;;;;;25841565;23;20004;-50
2023/10/07 08:23:28;;;;;;;8.63;6.38;;;18.40;99.90;;;;;;25882275;23;20008;-53
2023/10/07 08:33:33;;;;;;;8.38;6.50;;;18.80;99.90;;;;;;25838571;23;20066;-65
2023/10/07 08:43:44;;;;;;;7.78;5.93;;;19.50;99.90;;;;;;25811881;23;20000;-53
2023/10/07 08:53:47;;;;;;;8.82;5.97;;;19.90;99.90;;;;;;25881286;23;20011;-64
2023/10/07 09:03:50;;;;;;;7.57;5.70;;;20.10;99.90;;;;;;25838287;23;20000;-51
2023/10/07 09:13:55;;;;;;;6.55;4.95;;;20.50;99.90;;;;;;25838367;23;20004;-50
2023/10/07 09:24:00;;;;;;;9.13;5.40;;;20.90;99.90;;;;;;25837890;23;20066;-53
2023/10/07 09:34:09;;;;;;;7.72;5.53;;;21.40;99.90;;;;;;25849437;23;20452;-51
2023/10/07 09:44:26;;;;;;;6.93;4.85;;;21.90;98.90;;;;;;25879324;23;20012;-51
2023/10/07 09:54:47;;;;;;;5.72;4.47;;;21.90;99.90;;;;;;25878823;23;20011;-62
2023/10/07 10:05:22;;;;;;;6.95;4.68;;;22.30;99.90;;;;;;25878172;23;20007;-53
2023/10/07 10:25:39;;;;;;;6.95;5.60;;;22.60;99.90;;;;;;25877494;23;20000;-61
2023/10/07 10:35:42;;;;;;;8.73;5.88;;;22.20;97.50;;;;;;25834902;23;20012;-61
2023/10/07 10:45:46;;;;;;;7.05;5.40;;;22.10;99.70;;;;;;25834823;23;20012;-52
2023/10/07 10:55:47;;;;;;;9.07;6.40;;;22.30;98.70;;;;;;25834971;23;20004;-51
2023/10/07 11:05:53;;;;;;;9.05;6.90;;;22.60;99.90;;;;;;25834709;23;20004;-53
2023/10/07 11:16:09;;;;;;;9.85;7.47;;;22.60;99.90;;;;;;25834228;23;20004;-52
2023/10/07 11:26:11;;;;;;;10.10;7.28;;;22.40;99.90;;;;;;25881711;23;20004;-49
2023/10/07 11:36:13;;;;;;;10.57;7.65;;;22.60;99.90;;;;;;25841876;23;20013;-50
2023/10/07 11:46:15;;;;;;;10.30;8.27;;;22.90;99.90;;;;;;25842082;23;20496;-52
2023/10/07 11:56:17;;;;;;;11.82;9.20;;;22.80;99.90;;;;;;25841531;23;20066;-52
2023/10/07 12:06:19;;;;;;;11.13;8.23;;;22.60;99.90;;;;;;25841281;23;20004;-50
2023/10/07 12:16:21;;;;;;;11.32;9.25;;;22.80;99.90;;;;;;25840494;23;20008;-51
2023/10/07 12:26:23;;;;;;;13.75;9.80;;;22.80;99.90;;;;;;25839848;23;20015;-51
2023/10/07 12:36:25;;;;;;;10.63;8.57;;;22.60;99.90;;;;;;25838691;23;20066;-53
2023/10/07 12:46:28;;;;;;;14.68;10.63;;;22.70;99.90;;;;;;25839384;23;20031;-53
2023/10/07 12:56:31;;;;;;;12.68;10.35;;;22.50;99.90;;;;;;25838447;23;20058;-64
2023/10/07 13:06:33;;;;;;;12.18;10.35;;;22.30;99.90;;;;;;25836902;23;20023;-64
2023/10/07 13:16:37;;;;;;;13.30;10.90;;;22.20;99.90;;;;;;25838301;23;20069;-54
2023/10/07 13:26:39;;;;;;;14.45;10.88;;;22.00;99.90;;;;;;25837466;23;20004;-55
2023/10/07 13:36:42;;;;;;;15.43;11.15;;;21.30;99.90;;;;;;25810368;23;20035;-51
2023/10/07 13:46:45;;;;;;;14.45;12.15;;;20.30;99.90;;;;;;25836668;23;20505;-63
2023/10/07 13:56:54;;;;;;;19.52;14.43;;;19.70;99.90;;;;;;25809747;23;20012;-57
2023/10/07 14:07:00;;;;;;;;;;;19.30;99.90;;;;;;25878687;23;20339;-55
2023/10/07 14:17:03;;;;;;;33.28;21.77;;;19.00;99.90;;;;;;25877671;23;19908;-56
2023/10/07 14:27:06;;;;;;;34.75;25.00;;;18.70;99.90;;;;;;25835471;23;20316;-55
2023/10/07 14:37:08;;;;;;;39.28;26.77;;;18.40;99.90;;;;;;25875952;23;20157;-57
2023/10/07 14:47:12;;;;;;;37.03;28.13;;;18.00;99.90;;;;;;25807484;23;20459;-59
2023/10/07 14:57:18;;;;;;;40.88;28.88;;;17.80;99.90;;;;;;25834956;23;20504;-63
2023/10/07 15:07:20;;;;;;;43.63;30.05;;;17.60;99.90;;;;;;25834101;23;20001;-56
2023/10/07 15:17:22;;;;;;;43.10;29.27;;;17.30;99.90;;;;;;25833352;23;20004;-56
2023/10/07 15:27:23;;;;;;;24.95;18.55;;;16.90;99.90;;;;;;25833270;23;20007;-56
2023/10/07 15:37:26;;;;;;;32.38;22.05;;;16.60;99.90;;;;;;25848940;23;20039;-55
2023/10/07 15:47:28;;;;;;;13.68;9.63;;;16.00;99.90;;;;;;25833872;23;20008;-53
2023/10/07 15:57:30;;;;;;;22.23;15.35;;;15.20;99.90;;;;;;25833383;23;20008;-55
2023/10/07 16:07:38;;;;;;;148.18;100.47;;;14.60;99.90;;;;;;25807784;23;20000;-62
2023/10/07 16:17:40;;;;;;;14.00;7.85;;;14.20;99.90;;;;;;25882740;23;20526;-61
2023/10/07 16:27:42;;;;;;;10.43;6.35;;;13.70;99.90;;;;;;25840994;23;20019;-61
2023/10/07 16:37:44;;;;;;;11.50;8.43;;;13.30;99.90;;;;;;25840901;23;20309;-61
2023/10/07 16:47:46;;;;;;;12.15;8.18;;;12.90;99.90;;;;;;25840016;23;20744;-53
2023/10/07 16:57:48;;;;;;;12.88;9.57;;;12.70;99.90;;;;;;25840442;23;20004;-54
2023/10/07 17:07:49;;;;;;;9.75;4.55;;;12.60;99.90;;;;;;25840837;23;20324;-54
2023/10/07 17:17:51;;;;;;;9.23;4.63;;;12.40;99.90;;;;;;25840237;23;20031;-55
2023/10/07 17:27:54;;;;;;;10.45;6.53;;;12.20;99.90;;;;;;25811921;23;20008;-54
2023/10/07 17:37:57;;;;;;;8.00;4.68;;;12.10;99.90;;;;;;25837691;23;20089;-53
2023/10/07 17:48:02;;;;;;;6.22;3.88;;;12.20;99.90;;;;;;25837842;23;20012;-54
2023/10/07 17:58:04;;;;;;;6.03;3.13;;;12.10;99.90;;;;;;25810194;23;20050;-50
2023/10/07 18:08:06;;;;;;;9.95;5.78;;;12.10;99.90;;;;;;25836702;23;20004;-53
2023/10/07 18:18:09;;;;;;;9.23;5.15;;;12.10;99.90;;;;;;25836583;23;20004;-52
2023/10/07 18:28:10;;;;;;;7.50;4.68;;;12.20;99.90;;;;;;25836617;23;20497;-61
2023/10/07 18:38:13;;;;;;;12.43;8.75;;;12.10;99.90;;;;;;25834150;23;20027;-53
2023/10/07 18:48:15;;;;;;;5.47;2.95;;;11.80;99.90;;;;;;25834730;23;20004;-61
2023/10/07 18:58:17;;;;;;;4.90;3.38;;;11.70;99.90;;;;;;25582627;23;20021;-62
2023/10/07 19:08:22;;;;;;;4.53;2.90;;;11.80;99.90;;;;;;25557269;23;20067;-61
2023/10/07 19:18:24;;;;;;;5.20;3.08;;;12.00;99.90;;;;;;25558890;23;20432;-61
2023/10/07 19:28:26;;;;;;;4.22;2.85;;;12.20;99.90;;;;;;25584175;23;20007;-60
2023/10/07 19:38:28;;;;;;;4.38;2.78;;;12.30;99.90;;;;;;25583575;23;20206;-60
2023/10/07 19:48:30;;;;;;;5.68;2.88;;;12.60;99.90;;;;;;25589785;23;20001;-50
2023/10/07 19:58:31;;;;;;;7.47;2.63;;;13.40;99.90;;;;;;25592111;23;20013;-53
2023/10/07 20:08:33;;;;;;;4.80;2.67;;;13.60;99.90;;;;;;25592493;23;20503;-60
2023/10/07 20:18:35;;;;;;;4.35;2.50;;;14.10;98.90;;;;;;25590418;23;20001;-60
2023/10/07 20:28:37;;;;;;;5.35;2.50;;;14.90;96.40;;;;;;25589842;23;20005;-60
2023/10/07 20:38:39;;;;;;;5.60;2.50;;;15.30;95.20;;;;;;25589448;23;20009;-60
2023/10/07 20:48:41;;;;;;;4.78;2.90;;;15.70;94.40;;;;;;25589800;23;20002;-60
2023/10/07 20:58:43;;;;;;;4.18;2.42;;;15.30;95.20;;;;;;25589353;23;20005;-60
2023/10/07 21:08:46;;;;;;;4.07;2.40;;;14.60;96.40;;;;;;25588708;23;20048;-60
2023/10/07 21:18:48;;;;;;;3.95;2.10;;;14.40;97.10;;;;;;25587730;23;20001;-60
2023/10/07 21:28:55;;;;;;;4.32;2.00;;;14.70;95.90;;;;;;25588602;23;20009;-60
2023/10/07 21:38:57;;;;;;;4.13;1.88;;;15.20;94.40;;;;;;25630377;23;20012;-52
2023/10/07 21:48:58;;;;;;;8.05;4.97;;;15.10;94.20;;;;;;25587531;23;20016;-61
2023/10/07 21:59:00;;;;;;;7.88;1.83;;;15.20;93.70;;;;;;25588061;23;20024;-60
2023/10/07 22:09:04;;;;;;;9.45;1.88;;;14.90;94.90;;;;;;25586668;23;20507;-61
2023/10/07 22:19:06;;;;;;;5.80;1.60;;;14.40;95.80;;;;;;25585845;23;20012;-61
2023/10/07 22:29:10;;;;;;;8.57;1.70;;;14.20;96.60;;;;;;25586258;23;20005;-60
2023/10/07 22:39:29;;;;;;;4.50;1.80;;;13.90;97.50;;;;;;25586422;23;20066;-51
2023/10/07 22:49:33;;;;;;;8.52;1.70;;;13.50;98.30;;;;;;25627600;23;20028;-60
2023/10/07 22:59:38;;;;;;;6.65;1.75;;;13.20;99.50;;;;;;25443064;23;20053;-60
2023/10/07 23:09:48;;;;;;;8.23;2.05;;;13.10;99.90;;;;;;25462843;23;20277;-60
2023/10/07 23:19:50;;;;;;;10.15;1.80;;;13.00;99.90;;;;;;25506190;23;20009;-50
2023/10/07 23:29:55;;;;;;;6.97;1.48;;;13.00;99.70;;;;;;25471890;23;20499;-52
2023/10/07 23:39:57;;;;;;;9.60;1.90;;;13.30;99.30;;;;;;25470346;23;20333;-60
2023/10/07 23:49:59;;;;;;;7.28;1.70;;;13.50;98.70;;;;;;25469783;23;20033;-60
